Weather at Ronald Reagan Washington National Airport

Public forecast

Using degrees Fahrenheit for public forecast. Weather courtesy of forecast.io.

Current aviation weather report (METAR) for Ronald Reagan Washington National Airport

Retrieved 2021/07/29 07:52 UTC (20 minutes ago):

KDCA 290752Z 22004KT 10SM FEW080 SCT095 BKN140 BKN200 23/21 A2998 RMK AO2 SLP152 T02330206

Aviation forecast (TAF) for Ronald Reagan Washington National Airport

Retrieved 2021/07/29 06:33 UTC (2 hours ago):

TAF KDCA 290531Z 2906/3012 VRB03KT P6SM SCT050 BKN150 FM291400 19004KT P6SM SCT150 FM292000 21005KT P6SM VCTS SCT050CB BKN100 FM300000 22005KT P6SM BKN200 FM300300 24005KT P6SM SCT200 WS020/26035KT